createdAt,value
2022-08-03T00:00:29.057Z,20.98
2022-08-03T00:01:29.044Z,21.03
2022-08-03T00:02:29.030Z,21.01
2022-08-03T00:03:29.078Z,20.96
2022-08-03T00:04:33.915Z,20.93
2022-08-03T00:05:28.981Z,20.93
2022-08-03T00:06:30.766Z,20.88
2022-08-03T00:07:28.948Z,20.85
2022-08-03T00:08:28.931Z,20.82
2022-08-03T00:09:28.919Z,20.78
2022-08-03T00:10:28.902Z,20.83
2022-08-03T00:11:28.885Z,20.78
2022-08-03T00:12:28.870Z,20.82
2022-08-03T00:13:28.857Z,20.78
2022-08-03T00:14:28.838Z,20.73
2022-08-03T00:15:28.824Z,20.80
2022-08-03T00:16:28.807Z,20.82
2022-08-03T00:17:28.792Z,20.74
2022-08-03T00:18:28.775Z,20.78
2022-08-03T00:19:28.762Z,20.85
2022-08-03T00:20:28.744Z,20.93
2022-08-03T00:21:28.734Z,20.90
2022-08-03T00:22:28.714Z,20.98
2022-08-03T00:23:50.838Z,21.04
2022-08-03T00:24:28.681Z,21.05
2022-08-03T00:25:28.668Z,20.98
2022-08-03T00:26:28.649Z,21.03
2022-08-03T00:27:28.633Z,21.10
2022-08-03T00:28:28.616Z,21.13
2022-08-03T00:29:28.604Z,21.11
2022-08-03T00:30:30.789Z,21.15
2022-08-03T00:31:51.480Z,21.15
2022-08-03T00:32:28.557Z,21.25
2022-08-03T00:33:28.544Z,21.26
2022-08-03T00:34:36.597Z,21.25
2022-08-03T00:35:50.042Z,21.25
2022-08-03T00:36:28.493Z,21.29
2022-08-03T00:37:41.514Z,21.23
2022-08-03T00:38:28.462Z,21.22
2022-08-03T00:39:28.446Z,21.25
2022-08-03T00:40:28.433Z,21.22
2022-08-03T00:41:28.417Z,21.15
2022-08-03T00:42:28.596Z,21.23
2022-08-03T00:43:28.383Z,21.14
2022-08-03T00:44:28.367Z,21.14
2022-08-03T00:45:28.354Z,21.25
2022-08-03T00:46:28.335Z,21.17
2022-08-03T00:47:28.322Z,21.25
2022-08-03T00:48:33.771Z,21.29
2022-08-03T00:49:28.375Z,21.25
2022-08-03T00:50:28.273Z,21.26
2022-08-03T00:51:28.257Z,21.28
2022-08-03T00:52:28.241Z,21.25
2022-08-03T00:53:28.227Z,21.28
2022-08-03T00:54:28.211Z,21.15
2022-08-03T00:55:28.195Z,21.05
2022-08-03T00:56:28.175Z,21.05
2022-08-03T00:57:28.165Z,20.88
2022-08-03T00:58:28.148Z,20.77
2022-08-03T00:59:28.133Z,20.67
2022-08-03T01:00:28.117Z,20.56
2022-08-03T01:01:32.346Z,20.42
2022-08-03T01:02:28.086Z,20.50
2022-08-03T01:03:28.069Z,20.53
2022-08-03T01:04:28.052Z,20.44
2022-08-03T01:05:28.037Z,20.44
2022-08-03T01:06:28.022Z,20.44
2022-08-03T01:07:28.005Z,20.37
2022-08-03T01:08:27.991Z,20.36
2022-08-03T01:09:27.976Z,20.40
2022-08-03T01:10:27.956Z,20.48
2022-08-03T01:11:27.943Z,20.44
2022-08-03T01:12:27.927Z,20.46
2022-08-03T01:14:02.354Z,20.42
2022-08-03T01:14:27.893Z,20.49
2022-08-03T01:15:27.881Z,20.50
2022-08-03T01:16:36.698Z,20.44
2022-08-03T01:17:27.850Z,20.53
2022-08-03T01:18:27.832Z,20.50
2022-08-03T01:19:27.816Z,20.59
2022-08-03T01:20:27.799Z,20.58
2022-08-03T01:21:27.792Z,20.60
2022-08-03T01:22:27.768Z,20.63
2022-08-03T01:23:28.998Z,20.59
2022-08-03T01:24:27.738Z,20.56
2022-08-03T01:25:27.721Z,20.56
2022-08-03T01:26:27.716Z,20.55
2022-08-03T01:27:27.692Z,20.39
2022-08-03T01:28:27.675Z,20.56
2022-08-03T01:29:27.658Z,20.59
2022-08-03T01:30:27.638Z,20.52
2022-08-03T01:31:27.625Z,20.46
2022-08-03T01:33:02.492Z,20.34
2022-08-03T01:33:27.594Z,20.33
2022-08-03T01:34:27.580Z,20.32
2022-08-03T01:35:27.566Z,20.30
2022-08-03T01:36:27.553Z,20.33
2022-08-03T01:37:27.534Z,20.30
2022-08-03T01:38:27.520Z,20.22
2022-08-03T01:39:27.505Z,20.22
2022-08-03T01:40:27.482Z,20.19
2022-08-03T01:41:27.469Z,20.21
2022-08-03T01:42:27.455Z,20.18
2022-08-03T01:44:26.681Z,20.10
2022-08-03T01:44:30.782Z,20.22
2022-08-03T01:45:27.404Z,20.02
2022-08-03T01:46:27.385Z,20.19
2022-08-03T01:47:27.375Z,20.10
2022-08-03T01:48:27.357Z,20.21
2022-08-03T01:49:27.427Z,20.18
2022-08-03T01:50:27.329Z,20.22
2022-08-03T01:51:58.567Z,20.22
2022-08-03T01:52:27.297Z,20.21
2022-08-03T01:53:27.277Z,20.29
2022-08-03T01:54:27.260Z,20.24
2022-08-03T01:55:27.245Z,20.30
2022-08-03T01:56:27.229Z,20.32
2022-08-03T01:57:27.221Z,20.34
2022-08-03T01:58:27.197Z,20.30
2022-08-03T01:59:27.181Z,20.34
2022-08-03T02:00:27.165Z,20.48
2022-08-03T02:01:27.269Z,20.46
2022-08-03T02:02:33.582Z,20.42
2022-08-03T02:03:27.118Z,20.48
2022-08-03T02:04:27.105Z,20.42
2022-08-03T02:05:27.086Z,20.42
2022-08-03T02:06:59.653Z,20.48
2022-08-03T02:07:27.062Z,20.52
2022-08-03T02:08:27.038Z,20.49
2022-08-03T02:09:27.022Z,20.48
2022-08-03T02:10:35.087Z,20.49
2022-08-03T02:11:26.989Z,20.42
2022-08-03T02:12:26.976Z,20.44
2022-08-03T02:13:26.958Z,20.36
2022-08-03T02:14:26.943Z,20.37
2022-08-03T02:15:26.924Z,20.30
2022-08-03T02:16:26.910Z,20.24
2022-08-03T02:17:39.743Z,20.32
2022-08-03T02:18:26.880Z,20.21
2022-08-03T02:19:26.861Z,20.27
2022-08-03T02:20:26.848Z,20.26
2022-08-03T02:21:57.494Z,20.29
2022-08-03T02:22:26.816Z,20.29
2022-08-03T02:23:26.798Z,20.30
2022-08-03T02:24:26.782Z,20.29
2022-08-03T02:25:26.766Z,20.26
2022-08-03T02:26:26.749Z,20.29
2022-08-03T02:27:26.737Z,20.30
2022-08-03T02:28:26.718Z,20.30
2022-08-03T02:29:40.265Z,20.17
2022-08-03T02:30:26.685Z,20.18
2022-08-03T02:31:26.668Z,20.04
2022-08-03T02:32:26.653Z,20.04
2022-08-03T02:33:26.637Z,19.92
2022-08-03T02:34:26.623Z,19.84
2022-08-03T02:35:26.606Z,19.92
2022-08-03T02:36:26.594Z,19.89
2022-08-03T02:37:26.574Z,19.79
2022-08-03T02:38:26.557Z,19.85
2022-08-03T02:39:26.540Z,19.82
2022-08-03T02:40:26.526Z,19.74
2022-08-03T02:41:26.508Z,19.74
2022-08-03T02:42:26.495Z,19.72
2022-08-03T02:43:26.476Z,19.82
2022-08-03T02:44:26.459Z,19.63
2022-08-03T02:45:26.443Z,19.75
2022-08-03T02:46:26.429Z,19.71
2022-08-03T02:47:26.411Z,19.70
2022-08-03T02:48:26.397Z,19.74
2022-08-03T02:49:40.710Z,19.74
2022-08-03T02:50:26.476Z,19.70
2022-08-03T02:51:26.347Z,19.72
2022-08-03T02:52:26.332Z,19.84
2022-08-03T02:53:26.321Z,19.79
2022-08-03T02:54:26.300Z,19.90
2022-08-03T02:55:26.283Z,19.78
2022-08-03T02:56:26.267Z,19.74
2022-08-03T02:57:26.249Z,19.71
2022-08-03T02:58:26.240Z,19.77
2022-08-03T02:59:26.217Z,19.64
2022-08-03T03:00:28.156Z,19.64
2022-08-03T03:01:26.284Z,19.59
2022-08-03T03:02:26.171Z,19.56
2022-08-03T03:03:27.049Z,19.49
2022-08-03T03:04:32.967Z,19.55
2022-08-03T03:05:52.043Z,19.55
2022-08-03T03:06:26.104Z,19.52
2022-08-03T03:07:26.090Z,19.53
2022-08-03T03:08:28.479Z,19.53
2022-08-03T03:09:26.060Z,19.49
2022-08-03T03:10:26.041Z,19.53
2022-08-03T03:11:26.023Z,19.57
2022-08-03T03:12:26.011Z,19.62
2022-08-03T03:13:25.994Z,19.59
2022-08-03T03:14:33.169Z,19.64
2022-08-03T03:15:25.960Z,19.66
2022-08-03T03:16:25.943Z,19.70
2022-08-03T03:17:25.928Z,19.72
2022-08-03T03:18:25.912Z,19.72
2022-08-03T03:19:25.900Z,19.75
2022-08-03T03:20:29.620Z,19.81
2022-08-03T03:21:25.862Z,19.72
2022-08-03T03:22:25.846Z,19.63
2022-08-03T03:23:25.828Z,19.62
2022-08-03T03:24:25.813Z,19.67
2022-08-03T03:25:25.804Z,19.63
2022-08-03T03:26:25.781Z,19.72
2022-08-03T03:27:25.762Z,19.77
2022-08-03T03:28:25.751Z,19.64
2022-08-03T03:29:25.731Z,19.79
2022-08-03T03:30:25.718Z,19.64
2022-08-03T03:31:25.699Z,19.67
2022-08-03T03:32:25.684Z,19.81
2022-08-03T03:33:28.268Z,19.77
2022-08-03T03:34:25.650Z,19.84
2022-08-03T03:35:25.632Z,19.77
2022-08-03T03:36:25.617Z,19.79
2022-08-03T03:37:25.601Z,19.70
2022-08-03T03:38:25.586Z,19.71
2022-08-03T03:39:25.569Z,19.70
2022-08-03T03:40:25.552Z,19.70
2022-08-03T03:41:25.535Z,19.74
2022-08-03T03:42:25.522Z,19.72
2022-08-03T03:43:25.509Z,19.75
2022-08-03T03:44:25.488Z,19.64
2022-08-03T03:45:25.470Z,19.67
2022-08-03T03:46:25.455Z,19.72
2022-08-03T03:47:32.363Z,19.57
2022-08-03T03:48:25.427Z,19.48
2022-08-03T03:49:25.452Z,19.42
2022-08-03T03:50:25.391Z,19.42
2022-08-03T03:51:25.374Z,19.45
2022-08-03T03:52:25.357Z,19.41
2022-08-03T03:53:25.341Z,19.38
2022-08-03T03:54:28.984Z,19.44
2022-08-03T03:55:25.312Z,19.38
2022-08-03T03:56:25.297Z,19.42
2022-08-03T03:57:25.274Z,19.44
2022-08-03T03:58:25.259Z,19.38
2022-08-03T03:59:25.241Z,19.44
2022-08-03T04:00:25.328Z,19.47
2022-08-03T04:01:25.266Z,19.38
2022-08-03T04:02:25.194Z,19.47
2022-08-03T04:03:25.175Z,19.52
2022-08-03T04:04:25.163Z,19.52
2022-08-03T04:05:25.148Z,19.53
2022-08-03T04:06:25.130Z,19.60
2022-08-03T04:07:25.112Z,19.70
2022-08-03T04:08:25.102Z,19.66
2022-08-03T04:09:25.080Z,19.77
2022-08-03T04:10:25.064Z,19.74
2022-08-03T04:11:29.228Z,19.72
2022-08-03T04:12:25.032Z,19.75
2022-08-03T04:13:25.013Z,19.57
2022-08-03T04:14:24.996Z,19.48
2022-08-03T04:15:24.982Z,19.42
2022-08-03T04:16:24.965Z,19.37
2022-08-03T04:17:24.950Z,19.38
2022-08-03T04:18:24.935Z,19.34
2022-08-03T04:19:24.916Z,19.32
2022-08-03T04:20:24.906Z,19.29
2022-08-03T04:21:24.883Z,19.32
2022-08-03T04:22:24.868Z,19.38
2022-08-03T04:23:24.849Z,19.44
2022-08-03T04:24:26.482Z,19.45
2022-08-03T04:25:24.819Z,19.45
2022-08-03T04:26:24.801Z,19.52
2022-08-03T04:27:24.786Z,19.53
2022-08-03T04:28:29.762Z,19.56
2022-08-03T04:29:24.750Z,19.59
2022-08-03T04:30:24.736Z,19.56
2022-08-03T04:31:24.718Z,19.66
2022-08-03T04:32:24.706Z,19.62
2022-08-03T04:33:24.686Z,19.77
2022-08-03T04:34:24.673Z,19.70
2022-08-03T04:35:24.652Z,19.63
2022-08-03T04:36:24.641Z,19.71
2022-08-03T04:37:24.624Z,19.74
2022-08-03T04:38:24.605Z,19.66
2022-08-03T04:39:24.587Z,19.62
2022-08-03T04:40:24.572Z,19.72
2022-08-03T04:41:24.553Z,19.74
2022-08-03T04:42:24.590Z,19.74
2022-08-03T04:43:24.521Z,19.77
2022-08-03T04:44:28.451Z,19.84
2022-08-03T04:45:24.489Z,19.82
2022-08-03T04:46:24.474Z,19.82
2022-08-03T04:47:24.455Z,19.79
2022-08-03T04:48:24.445Z,19.85
2022-08-03T04:49:24.568Z,19.92
2022-08-03T04:50:24.406Z,19.85
2022-08-03T04:51:24.393Z,19.92
2022-08-03T04:52:24.375Z,19.90
2022-08-03T04:53:24.360Z,19.89
2022-08-03T04:54:24.340Z,19.93
2022-08-03T04:55:24.328Z,19.90
2022-08-03T04:56:24.308Z,19.97
2022-08-03T04:57:24.290Z,19.99
2022-08-03T04:58:24.275Z,19.99
2022-08-03T04:59:24.259Z,19.94
2022-08-03T05:00:24.245Z,20.07
2022-08-03T05:01:24.319Z,20.10
2022-08-03T05:02:24.212Z,20.02
2022-08-03T05:03:25.165Z,20.19
2022-08-03T05:04:24.178Z,20.19
2022-08-03T05:05:24.161Z,20.24
2022-08-03T05:06:25.156Z,20.19
2022-08-03T05:07:25.175Z,20.24
2022-08-03T05:08:27.775Z,20.39
2022-08-03T05:09:50.021Z,20.34
2022-08-03T05:10:24.080Z,20.42
2022-08-03T05:11:24.061Z,20.39
2022-08-03T05:12:24.047Z,20.52
2022-08-03T05:13:24.030Z,20.46
2022-08-03T05:14:28.330Z,20.60
2022-08-03T05:15:23.995Z,20.60
2022-08-03T05:16:23.980Z,20.66
2022-08-03T05:17:23.966Z,20.75
2022-08-03T05:18:23.949Z,20.82
2022-08-03T05:19:23.931Z,20.78
2022-08-03T05:20:23.913Z,20.85
2022-08-03T05:21:23.896Z,20.89
2022-08-03T05:22:23.881Z,20.96
2022-08-03T05:23:23.866Z,20.90
2022-08-03T05:24:23.850Z,21.01
2022-08-03T05:25:27.299Z,21.05
2022-08-03T05:26:23.816Z,21.01
2022-08-03T05:27:23.802Z,21.07
2022-08-03T05:28:23.789Z,21.14
2022-08-03T05:29:23.765Z,21.14
2022-08-03T05:30:31.109Z,21.13
2022-08-03T05:31:23.733Z,21.19
2022-08-03T05:32:23.720Z,21.28
2022-08-03T05:33:23.703Z,21.26
2022-08-03T05:34:23.686Z,21.28
2022-08-03T05:35:56.793Z,21.40
2022-08-03T05:36:23.653Z,21.33
2022-08-03T05:37:23.636Z,21.43
2022-08-03T05:38:23.920Z,21.44
2022-08-03T05:39:23.603Z,21.53
2022-08-03T05:40:23.588Z,21.59
2022-08-03T05:41:37.305Z,21.58
2022-08-03T05:42:23.556Z,21.54
2022-08-03T05:43:23.540Z,21.60
2022-08-03T05:44:23.525Z,21.59
2022-08-03T05:45:28.135Z,21.60
2022-08-03T05:46:23.491Z,21.65
2022-08-03T05:47:23.474Z,21.66
2022-08-03T05:48:23.457Z,21.78
2022-08-03T05:49:23.553Z,21.75
2022-08-03T05:50:23.435Z,21.78
2022-08-03T05:51:23.409Z,21.83
2022-08-03T05:52:23.857Z,21.85
2022-08-03T05:53:23.377Z,21.89
2022-08-03T05:54:23.361Z,21.91
2022-08-03T05:55:23.347Z,22.00
2022-08-03T05:56:23.333Z,21.94
2022-08-03T05:57:23.312Z,21.96
2022-08-03T05:58:23.299Z,22.06
2022-08-03T05:59:38.115Z,22.07
2022-08-03T06:00:23.264Z,22.07
2022-08-03T06:01:23.413Z,22.12
2022-08-03T06:02:23.232Z,22.15
2022-08-03T06:03:23.219Z,22.21
2022-08-03T06:04:23.204Z,22.12
2022-08-03T06:05:23.191Z,22.26
2022-08-03T06:06:23.172Z,22.19
2022-08-03T06:07:23.156Z,22.34
2022-08-03T06:08:23.137Z,22.38
2022-08-03T06:09:23.122Z,22.38
2022-08-03T06:10:35.687Z,22.33
2022-08-03T06:11:23.089Z,22.36
2022-08-03T06:12:23.072Z,22.38
2022-08-03T06:13:23.060Z,22.46
2022-08-03T06:14:23.040Z,22.46
2022-08-03T06:15:23.030Z,22.41
2022-08-03T06:16:23.009Z,22.56
2022-08-03T06:17:22.996Z,22.58
2022-08-03T06:18:22.977Z,22.62
2022-08-03T06:19:22.962Z,22.61
2022-08-03T06:20:27.258Z,22.58
2022-08-03T06:21:22.931Z,22.59
2022-08-03T06:22:22.915Z,22.62
2022-08-03T06:23:28.674Z,22.61
2022-08-03T06:24:25.035Z,22.67
2022-08-03T06:25:22.872Z,22.67
2022-08-03T06:26:22.852Z,22.68
2022-08-03T06:27:31.415Z,22.67
2022-08-03T06:28:51.768Z,22.67
2022-08-03T06:29:22.805Z,22.70
2022-08-03T06:30:22.786Z,22.76
2022-08-03T06:31:22.861Z,22.74
2022-08-03T06:32:22.755Z,22.73
2022-08-03T06:33:22.740Z,22.71
2022-08-03T06:34:33.714Z,22.81
2022-08-03T06:35:22.711Z,22.83
2022-08-03T06:36:22.697Z,22.84
2022-08-03T06:37:22.678Z,22.83
2022-08-03T06:38:22.661Z,22.81
2022-08-03T06:39:23.274Z,22.89
2022-08-03T06:40:24.456Z,22.81
2022-08-03T06:41:22.617Z,22.95
2022-08-03T06:42:22.744Z,22.92
2022-08-03T06:43:22.582Z,23.07
2022-08-03T06:44:22.570Z,23.06
2022-08-03T06:45:22.553Z,23.10
2022-08-03T06:46:22.535Z,23.01
2022-08-03T06:47:22.520Z,23.10
2022-08-03T06:48:22.505Z,23.13
2022-08-03T06:49:22.584Z,23.14
2022-08-03T06:50:26.021Z,23.14
2022-08-03T06:51:22.464Z,23.16
2022-08-03T06:52:37.828Z,23.14
2022-08-03T06:53:22.429Z,23.23
2022-08-03T06:54:22.428Z,23.20
2022-08-03T06:55:22.401Z,23.28
2022-08-03T06:56:22.380Z,23.25
2022-08-03T06:57:22.369Z,23.32
2022-08-03T06:58:22.357Z,23.36
2022-08-03T07:00:08.852Z,23.29
2022-08-03T07:00:22.319Z,23.33
2022-08-03T07:01:22.336Z,23.36
2022-08-03T07:02:22.285Z,23.39
2022-08-03T07:03:22.272Z,23.37
2022-08-03T07:04:22.256Z,23.39
2022-08-03T07:05:22.243Z,23.44
2022-08-03T07:06:22.225Z,23.48
2022-08-03T07:07:22.213Z,23.51
2022-08-03T07:08:34.143Z,23.63
2022-08-03T07:09:22.180Z,23.59
2022-08-03T07:10:22.165Z,23.66
2022-08-03T07:11:22.154Z,23.73
2022-08-03T07:12:22.131Z,23.70
2022-08-03T07:13:22.121Z,23.66
2022-08-03T07:14:22.101Z,23.70
2022-08-03T07:15:38.348Z,23.81
2022-08-03T07:16:22.069Z,23.73
2022-08-03T07:17:22.057Z,23.74
2022-08-03T07:18:29.665Z,23.71
2022-08-03T07:19:22.024Z,23.77
2022-08-03T07:20:22.007Z,23.77
2022-08-03T07:21:21.994Z,23.84
2022-08-03T07:22:21.977Z,23.88
2022-08-03T07:23:21.963Z,23.86
2022-08-03T07:24:21.947Z,23.92
2022-08-03T07:25:21.933Z,23.91
2022-08-03T07:26:21.917Z,23.95
2022-08-03T07:27:21.903Z,23.91
2022-08-03T07:28:21.888Z,23.96
2022-08-03T07:29:21.872Z,23.96
2022-08-03T07:30:21.871Z,24.07
2022-08-03T07:31:21.843Z,24.10
2022-08-03T07:32:21.823Z,24.09
2022-08-03T07:33:21.813Z,24.04
2022-08-03T07:34:21.799Z,24.06
2022-08-03T07:35:24.616Z,24.06
2022-08-03T07:36:21.761Z,24.06
2022-08-03T07:37:21.749Z,24.21
2022-08-03T07:38:21.733Z,24.14
2022-08-03T07:39:21.718Z,24.18
2022-08-03T07:40:21.787Z,24.18
2022-08-03T07:41:21.691Z,24.29
2022-08-03T07:42:21.672Z,24.38
2022-08-03T07:43:21.658Z,24.38
2022-08-03T07:44:21.641Z,24.43
2022-08-03T07:45:21.627Z,24.43
2022-08-03T07:46:21.608Z,24.46
2022-08-03T07:47:22.535Z,24.44
2022-08-03T07:48:21.580Z,24.47
2022-08-03T07:49:21.609Z,24.59
2022-08-03T07:50:21.660Z,24.61
2022-08-03T07:51:21.535Z,24.68
2022-08-03T07:52:21.517Z,24.61
2022-08-03T07:53:21.506Z,24.58
2022-08-03T07:54:21.487Z,24.71
2022-08-03T07:55:21.474Z,24.66
2022-08-03T07:56:21.460Z,24.66
2022-08-03T07:57:21.447Z,24.69
2022-08-03T07:58:24.150Z,24.68
2022-08-03T07:59:21.416Z,24.81
2022-08-03T08:00:21.397Z,24.84
2022-08-03T08:01:21.436Z,24.82
2022-08-03T08:02:21.369Z,24.85
2022-08-03T08:03:21.363Z,24.88
2022-08-03T08:04:21.339Z,24.86
2022-08-03T08:05:21.326Z,24.86
2022-08-03T08:06:21.307Z,24.94
2022-08-03T08:07:21.295Z,24.92
2022-08-03T08:08:21.277Z,24.97
2022-08-03T08:09:21.264Z,24.97
2022-08-03T08:10:21.248Z,25.03
2022-08-03T08:11:21.243Z,25.03
2022-08-03T08:12:21.418Z,25.04
2022-08-03T08:13:21.204Z,25.01
2022-08-03T08:14:21.187Z,25.12
2022-08-03T08:15:21.176Z,25.00
2022-08-03T08:16:21.185Z,25.04
2022-08-03T08:17:21.144Z,25.12
2022-08-03T08:18:21.127Z,25.01
2022-08-03T08:19:21.113Z,24.97
2022-08-03T08:20:27.049Z,25.12
2022-08-03T08:21:21.087Z,24.99
2022-08-03T08:22:28.745Z,25.06
2022-08-03T08:23:41.668Z,25.16
2022-08-03T08:24:21.037Z,25.07
2022-08-03T08:25:21.024Z,25.04
2022-08-03T08:26:21.009Z,25.22
2022-08-03T08:27:20.993Z,25.29
2022-08-03T08:28:22.236Z,25.11
2022-08-03T08:29:20.964Z,25.22
2022-08-03T08:30:20.987Z,25.26
2022-08-03T08:31:20.936Z,25.34
2022-08-03T08:32:20.921Z,25.29
2022-08-03T08:33:22.788Z,25.26
2022-08-03T08:34:20.890Z,25.34
2022-08-03T08:35:20.876Z,25.37
2022-08-03T08:36:20.859Z,25.37
2022-08-03T08:37:20.849Z,25.36
2022-08-03T08:38:20.831Z,25.40
2022-08-03T08:39:20.817Z,25.40
2022-08-03T08:40:20.805Z,25.39
2022-08-03T08:41:20.791Z,25.37
2022-08-03T08:42:20.771Z,25.40
2022-08-03T08:43:20.759Z,25.40
2022-08-03T08:44:20.742Z,25.37
2022-08-03T08:45:20.729Z,25.44
2022-08-03T08:46:23.355Z,25.49
2022-08-03T08:47:20.701Z,25.59
2022-08-03T08:48:20.687Z,25.48
2022-08-03T08:49:20.701Z,25.58
2022-08-03T08:50:27.701Z,25.58
2022-08-03T08:51:20.641Z,25.59
2022-08-03T08:52:29.489Z,25.59
2022-08-03T08:53:26.738Z,25.61
2022-08-03T08:54:20.596Z,25.74
2022-08-03T08:55:20.586Z,25.74
2022-08-03T08:56:20.574Z,25.81
2022-08-03T08:57:40.679Z,25.81
2022-08-03T08:58:20.861Z,25.85
2022-08-03T08:59:20.526Z,25.80
2022-08-03T09:00:20.507Z,25.91
2022-08-03T09:01:20.564Z,25.93
2022-08-03T09:02:20.479Z,25.92
2022-08-03T09:03:26.159Z,25.85
2022-08-03T09:04:20.450Z,25.86
2022-08-03T09:05:31.504Z,25.91
2022-08-03T09:06:20.420Z,25.88
2022-08-03T09:07:20.909Z,25.99
2022-08-03T09:08:20.395Z,26.03
2022-08-03T09:10:04.668Z,26.15
2022-08-03T09:10:20.364Z,26.04
2022-08-03T09:11:20.349Z,26.11
2022-08-03T09:12:40.949Z,26.11
2022-08-03T09:13:20.320Z,26.15
2022-08-03T09:14:39.152Z,26.11
2022-08-03T09:15:20.290Z,26.15
2022-08-03T09:16:20.276Z,26.24
2022-08-03T09:17:20.478Z,26.22
2022-08-03T09:18:20.248Z,26.26
2022-08-03T09:19:20.234Z,26.24
2022-08-03T09:20:20.222Z,26.29
2022-08-03T09:21:34.008Z,26.33
2022-08-03T09:22:20.190Z,26.23
2022-08-03T09:23:59.187Z,26.26
2022-08-03T09:24:37.259Z,26.23
2022-08-03T09:25:24.873Z,26.30
2022-08-03T09:26:20.130Z,26.19
2022-08-03T09:27:20.118Z,26.23
2022-08-03T09:28:52.874Z,26.27
2022-08-03T09:29:20.089Z,26.30
2022-08-03T09:30:33.365Z,26.39
2022-08-03T09:31:20.061Z,26.39
2022-08-03T09:32:20.046Z,26.56
2022-08-03T09:33:20.032Z,26.53
2022-08-03T09:34:20.029Z,26.44
2022-08-03T09:35:32.984Z,26.55
2022-08-03T09:36:19.989Z,26.52
2022-08-03T09:37:20.099Z,26.73
2022-08-03T09:38:19.961Z,26.71
2022-08-03T09:39:19.949Z,26.81
2022-08-03T09:40:19.931Z,26.78
2022-08-03T09:41:19.928Z,26.81
2022-08-03T09:42:23.752Z,26.83
2022-08-03T09:43:19.891Z,26.88
2022-08-03T09:44:25.078Z,26.85
2022-08-03T09:45:19.862Z,26.86
2022-08-03T09:46:19.849Z,26.83
2022-08-03T09:47:20.091Z,26.98
2022-08-03T09:48:19.821Z,26.98
2022-08-03T09:49:19.961Z,26.88
2022-08-03T09:50:19.793Z,27.00
2022-08-03T09:51:32.802Z,27.05
2022-08-03T09:52:38.411Z,27.07
2022-08-03T09:53:19.751Z,27.15
2022-08-03T09:54:20.788Z,27.20
2022-08-03T09:56:30.481Z,27.19
2022-08-03T09:56:35.585Z,27.33
2022-08-03T09:57:19.965Z,27.50
2022-08-03T09:58:19.679Z,27.52
2022-08-03T09:59:19.665Z,27.63
2022-08-03T10:00:19.651Z,27.61
2022-08-03T10:01:24.169Z,27.66
2022-08-03T10:02:19.623Z,27.66
2022-08-03T10:03:19.610Z,27.75
2022-08-03T10:04:19.596Z,27.72
2022-08-03T10:05:20.096Z,27.83
2022-08-03T10:06:19.568Z,27.85
2022-08-03T10:07:19.720Z,27.98
2022-08-03T10:08:19.539Z,28.01
2022-08-03T10:09:19.527Z,28.10
2022-08-03T10:10:28.988Z,28.04
2022-08-03T10:11:19.498Z,28.06
2022-08-03T10:12:19.486Z,28.22
2022-08-03T10:13:19.476Z,28.19
2022-08-03T10:14:19.855Z,28.20
2022-08-03T10:16:23.005Z,28.23
2022-08-03T10:16:23.117Z,28.35
2022-08-03T10:17:19.698Z,28.43
2022-08-03T10:18:19.404Z,28.47
2022-08-03T10:19:19.395Z,28.45
2022-08-03T10:20:19.378Z,28.41
2022-08-03T10:21:19.365Z,28.47
2022-08-03T10:22:19.353Z,28.45
2022-08-03T10:24:19.352Z,28.38
2022-08-03T10:25:19.315Z,28.37
2022-08-03T10:26:19.296Z,28.46
2022-08-03T10:27:20.201Z,28.37
2022-08-03T10:28:19.270Z,28.35
2022-08-03T10:29:19.266Z,28.38
2022-08-03T10:30:19.243Z,28.37
2022-08-03T10:31:19.231Z,28.47
2022-08-03T10:32:19.249Z,28.47
2022-08-03T10:33:50.688Z,28.45
2022-08-03T10:34:19.189Z,28.62
2022-08-03T10:35:20.044Z,28.60
2022-08-03T10:36:19.170Z,28.80
2022-08-03T10:37:19.466Z,28.77
2022-08-03T10:38:19.138Z,28.86
2022-08-03T10:39:19.126Z,28.80
2022-08-03T10:40:39.470Z,28.94
2022-08-03T10:41:19.101Z,28.89
2022-08-03T10:42:19.094Z,28.93
2022-08-03T10:43:19.080Z,29.07
2022-08-03T10:44:19.069Z,29.30
2022-08-03T10:45:19.050Z,29.40
2022-08-03T10:46:19.035Z,29.31
2022-08-03T10:47:19.348Z,29.27
2022-08-03T10:48:19.016Z,29.24
2022-08-03T10:49:25.509Z,29.25
2022-08-03T10:50:18.986Z,29.24
2022-08-03T10:51:18.978Z,29.10
2022-08-03T10:52:33.737Z,29.03
2022-08-03T10:53:20.129Z,28.94
2022-08-03T10:54:18.932Z,29.03
2022-08-03T10:55:18.922Z,29.00
2022-08-03T10:56:27.431Z,29.09
2022-08-03T10:57:18.897Z,29.09
2022-08-03T10:58:30.442Z,29.24
2022-08-03T10:59:27.496Z,29.10
2022-08-03T11:00:18.858Z,28.96
2022-08-03T11:01:18.910Z,28.97
2022-08-03T11:02:18.834Z,28.92
2022-08-03T11:03:18.828Z,28.94
2022-08-03T11:04:18.805Z,29.13
2022-08-03T11:05:18.795Z,29.31
2022-08-03T11:06:18.780Z,29.44
2022-08-03T11:07:19.129Z,29.52
2022-08-03T11:08:18.787Z,29.59
2022-08-03T11:09:18.743Z,29.69
2022-08-03T11:10:18.731Z,29.90
2022-08-03T11:11:18.724Z,29.96
2022-08-03T11:12:18.706Z,29.99
2022-08-03T11:13:18.695Z,29.94
2022-08-03T11:14:18.684Z,29.71
2022-08-03T11:15:18.668Z,29.77
2022-08-03T11:16:22.023Z,29.74
2022-08-03T11:17:18.847Z,29.69
2022-08-03T11:18:18.639Z,29.71
2022-08-03T11:20:18.608Z,29.68
2022-08-03T11:21:18.594Z,29.57
2022-08-03T11:22:18.915Z,29.58
2022-08-03T11:24:19.091Z,29.35
2022-08-03T11:25:52.963Z,29.28
2022-08-03T11:26:18.563Z,29.30
2022-08-03T11:27:19.050Z,29.39
2022-08-03T11:28:18.738Z,29.42
2022-08-03T11:29:18.531Z,29.39
2022-08-03T11:30:18.518Z,29.52
2022-08-03T11:31:46.849Z,29.52
2022-08-03T11:32:19.619Z,29.62
2022-08-03T11:33:18.479Z,29.46
2022-08-03T11:34:18.461Z,29.43
2022-08-03T11:35:18.424Z,29.44
2022-08-03T11:36:32.382Z,29.53
2022-08-03T11:37:18.793Z,29.43
2022-08-03T11:39:18.374Z,29.22
2022-08-03T11:40:18.396Z,29.35
2022-08-03T11:41:18.348Z,29.34
2022-08-03T11:45:19.179Z,29.21
2022-08-03T11:46:29.483Z,29.25
2022-08-03T11:47:18.926Z,29.16
2022-08-03T11:48:18.260Z,29.22
2022-08-03T11:50:19.551Z,29.34
2022-08-03T11:51:18.253Z,29.30
2022-08-03T11:52:18.214Z,29.22
2022-08-03T11:53:18.202Z,29.40
2022-08-03T11:54:18.187Z,29.28
2022-08-03T11:55:18.245Z,29.37
2022-08-03T11:56:18.163Z,29.37
2022-08-03T11:57:18.394Z,29.31
2022-08-03T11:59:10.855Z,29.37
2022-08-03T11:59:21.742Z,29.24
2022-08-03T12:01:22.862Z,29.47
2022-08-03T12:02:18.319Z,29.39
2022-08-03T12:03:18.383Z,29.40
2022-08-03T12:04:18.066Z,29.37
2022-08-03T12:05:18.096Z,29.31
2022-08-03T12:06:18.073Z,29.35
2022-08-03T12:08:02.729Z,29.39
2022-08-03T12:08:18.014Z,29.46
2022-08-03T12:09:18.001Z,29.39
2022-08-03T12:10:17.989Z,29.35
2022-08-03T12:11:17.977Z,29.46
2022-08-03T12:12:17.995Z,29.35
2022-08-03T12:14:35.674Z,29.50
2022-08-03T12:14:48.539Z,29.58
2022-08-03T12:15:18.264Z,29.52
2022-08-03T12:16:17.942Z,29.42
2022-08-03T12:18:19.329Z,29.52
2022-08-03T12:19:18.110Z,29.50
2022-08-03T12:20:18.091Z,29.62
2022-08-03T12:21:18.290Z,29.67
2022-08-03T12:22:18.072Z,29.64
2022-08-03T12:23:17.857Z,29.62
2022-08-03T12:27:17.888Z,29.77
2022-08-03T12:28:37.413Z,29.65
2022-08-03T12:29:18.055Z,29.76
2022-08-03T12:30:17.970Z,29.73
2022-08-03T12:31:17.727Z,29.69
2022-08-03T12:32:17.717Z,29.86
2022-08-03T12:33:17.736Z,29.81
2022-08-03T12:34:17.692Z,29.71
2022-08-03T12:35:17.679Z,29.76
2022-08-03T12:36:17.666Z,29.74
2022-08-03T12:37:22.212Z,29.76
2022-08-03T12:38:17.642Z,29.77
2022-08-03T12:39:17.663Z,29.84
2022-08-03T12:40:20.567Z,29.87
2022-08-03T12:41:17.606Z,29.89
2022-08-03T12:42:17.595Z,29.89
2022-08-03T12:43:17.583Z,29.89
2022-08-03T12:44:17.570Z,29.83
2022-08-03T12:45:17.553Z,29.90
2022-08-03T12:46:17.541Z,29.94
2022-08-03T12:47:17.812Z,29.89
2022-08-03T12:48:17.518Z,29.96
2022-08-03T12:49:17.571Z,29.96
2022-08-03T12:50:17.494Z,29.95
2022-08-03T12:51:17.477Z,29.95
2022-08-03T12:52:17.472Z,29.89
2022-08-03T12:53:17.454Z,29.87
2022-08-03T12:54:17.504Z,29.87
2022-08-03T12:55:17.431Z,29.92
2022-08-03T12:56:17.421Z,29.98
2022-08-03T12:57:17.732Z,29.96
2022-08-03T12:58:19.110Z,29.98
2022-08-03T12:59:17.383Z,30.11
2022-08-03T13:00:21.308Z,29.95
2022-08-03T13:01:17.434Z,29.89
2022-08-03T13:02:17.684Z,29.89
2022-08-03T13:03:39.385Z,30.03
2022-08-03T13:04:18.379Z,30.03
2022-08-03T13:05:17.320Z,30.01